sensor_id;sensor_type;location;lat;lon;timestamp;pressure;altitude;pressure_sealevel;temperature;humidity
16525;BME280;8375;33.594;-117.718;2022-10-17T00:01:10;100393.84;;;21.67;67.94
16525;BME280;8375;33.594;-117.718;2022-10-17T00:03:39;100394.22;;;21.64;67.88
16525;BME280;8375;33.594;-117.718;2022-10-17T00:06:10;100395.66;;;21.51;68.02
16525;BME280;8375;33.594;-117.718;2022-10-17T00:08:40;100390.19;;;21.53;68.17
16525;BME280;8375;33.594;-117.718;2022-10-17T00:11:14;100386.38;;;21.56;68.47
16525;BME280;8375;33.594;-117.718;2022-10-17T00:13:44;100383.19;;;21.45;67.69
16525;BME280;8375;33.594;-117.718;2022-10-17T00:16:14;100382.94;;;21.40;68.44
16525;BME280;8375;33.594;-117.718;2022-10-17T00:18:43;100376.09;;;21.46;68.14
16525;BME280;8375;33.594;-117.718;2022-10-17T00:21:15;100377.56;;;21.33;68.88
16525;BME280;8375;33.594;-117.718;2022-10-17T00:23:44;100372.13;;;21.35;68.57
16525;BME280;8375;33.594;-117.718;2022-10-17T00:26:13;100376.13;;;21.31;68.95
16525;BME280;8375;33.594;-117.718;2022-10-17T00:28:45;100379.94;;;21.28;68.89
16525;BME280;8375;33.594;-117.718;2022-10-17T00:31:15;100387.59;;;21.23;68.41
16525;BME280;8375;33.594;-117.718;2022-10-17T00:33:44;100382.31;;;21.08;68.64
16525;BME280;8375;33.594;-117.718;2022-10-17T00:36:14;100387.16;;;21.04;69.00
16525;BME280;8375;33.594;-117.718;2022-10-17T00:38:44;100384.50;;;21.04;69.49
16525;BME280;8375;33.594;-117.718;2022-10-17T00:41:15;100378.50;;;20.95;69.58
16525;BME280;8375;33.594;-117.718;2022-10-17T00:43:57;100381.75;;;20.98;69.61
16525;BME280;8375;33.594;-117.718;2022-10-17T00:46:26;100381.59;;;20.99;70.21
16525;BME280;8375;33.594;-117.718;2022-10-17T00:48:56;100389.69;;;20.98;69.61
16525;BME280;8375;33.594;-117.718;2022-10-17T00:51:29;100390.31;;;21.00;70.10
16525;BME280;8375;33.594;-117.718;2022-10-17T00:54:02;100389.88;;;20.96;69.74
16525;BME280;8375;33.594;-117.718;2022-10-17T00:56:32;100391.25;;;20.92;70.38
16525;BME280;8375;33.594;-117.718;2022-10-17T00:59:03;100389.13;;;20.87;70.24
16525;BME280;8375;33.594;-117.718;2022-10-17T01:01:31;100384.84;;;20.86;70.91
16525;BME280;8375;33.594;-117.718;2022-10-17T01:04:00;100389.50;;;20.84;70.71
16525;BME280;8375;33.594;-117.718;2022-10-17T01:06:28;100391.06;;;20.78;71.09
16525;BME280;8375;33.594;-117.718;2022-10-17T01:08:57;100393.69;;;20.78;71.11
16525;BME280;8375;33.594;-117.718;2022-10-17T01:11:34;100393.56;;;20.72;71.90
16525;BME280;8375;33.594;-117.718;2022-10-17T01:14:11;100396.53;;;20.69;71.57
16525;BME280;8375;33.594;-117.718;2022-10-17T01:16:45;100397.25;;;20.62;71.76
16525;BME280;8375;33.594;-117.718;2022-10-17T01:19:39;100401.25;;;20.58;72.04
16525;BME280;8375;33.594;-117.718;2022-10-17T01:22:14;100405.09;;;20.56;72.33
16525;BME280;8375;33.594;-117.718;2022-10-17T01:25:05;100403.16;;;20.49;72.27
16525;BME280;8375;33.594;-117.718;2022-10-17T01:27:50;100406.81;;;20.48;72.86
16525;BME280;8375;33.594;-117.718;2022-10-17T01:30:48;100413.78;;;20.41;73.96
16525;BME280;8375;33.594;-117.718;2022-10-17T01:33:29;100423.50;;;20.41;73.18
16525;BME280;8375;33.594;-117.718;2022-10-17T01:36:02;100424.03;;;20.36;73.55
16525;BME280;8375;33.594;-117.718;2022-10-17T01:38:34;100427.03;;;20.33;74.13
16525;BME280;8375;33.594;-117.718;2022-10-17T01:41:08;100439.91;;;20.28;74.64
16525;BME280;8375;33.594;-117.718;2022-10-17T01:43:46;100431.53;;;20.24;74.76
16525;BME280;8375;33.594;-117.718;2022-10-17T01:46:21;100443.97;;;20.15;75.12
16525;BME280;8375;33.594;-117.718;2022-10-17T01:48:53;100438.50;;;20.17;76.28
16525;BME280;8375;33.594;-117.718;2022-10-17T01:51:25;100448.94;;;20.10;76.06
16525;BME280;8375;33.594;-117.718;2022-10-17T01:53:59;100448.50;;;19.98;75.80
16525;BME280;8375;33.594;-117.718;2022-10-17T01:56:31;100455.41;;;19.99;76.25
16525;BME280;8375;33.594;-117.718;2022-10-17T01:59:06;100454.75;;;19.97;75.87
16525;BME280;8375;33.594;-117.718;2022-10-17T02:01:41;100456.09;;;19.93;76.56
16525;BME280;8375;33.594;-117.718;2022-10-17T02:04:10;100462.69;;;19.89;77.17
16525;BME280;8375;33.594;-117.718;2022-10-17T02:06:39;100468.13;;;19.87;77.53
16525;BME280;8375;33.594;-117.718;2022-10-17T02:09:17;100470.28;;;19.84;76.87
16525;BME280;8375;33.594;-117.718;2022-10-17T02:11:59;100474.25;;;19.79;77.28
16525;BME280;8375;33.594;-117.718;2022-10-17T02:14:40;100474.28;;;19.71;77.72
16525;BME280;8375;33.594;-117.718;2022-10-17T02:17:21;100480.75;;;19.60;78.36
16525;BME280;8375;33.594;-117.718;2022-10-17T02:20:02;100476.69;;;19.49;78.33
16525;BME280;8375;33.594;-117.718;2022-10-17T02:22:39;100479.97;;;19.52;79.22
16525;BME280;8375;33.594;-117.718;2022-10-17T02:25:14;100474.72;;;19.43;79.00
16525;BME280;8375;33.594;-117.718;2022-10-17T02:27:47;100486.56;;;19.47;79.39
16525;BME280;8375;33.594;-117.718;2022-10-17T02:30:25;100479.84;;;19.45;79.84
16525;BME280;8375;33.594;-117.718;2022-10-17T02:33:02;100484.63;;;19.33;79.03
16525;BME280;8375;33.594;-117.718;2022-10-17T02:35:35;100486.13;;;19.27;80.36
16525;BME280;8375;33.594;-117.718;2022-10-17T02:38:07;100487.59;;;19.30;80.52
16525;BME280;8375;33.594;-117.718;2022-10-17T02:40:39;100491.22;;;19.29;80.26
16525;BME280;8375;33.594;-117.718;2022-10-17T02:43:08;100491.91;;;19.14;80.48
16525;BME280;8375;33.594;-117.718;2022-10-17T02:45:38;100489.28;;;19.06;80.55
16525;BME280;8375;33.594;-117.718;2022-10-17T02:48:13;100488.13;;;18.92;81.79
16525;BME280;8375;33.594;-117.718;2022-10-17T02:50:51;100490.75;;;18.92;81.49
16525;BME280;8375;33.594;-117.718;2022-10-17T02:53:29;100499.66;;;18.99;81.19
16525;BME280;8375;33.594;-117.718;2022-10-17T02:56:05;100502.44;;;18.89;80.97
16525;BME280;8375;33.594;-117.718;2022-10-17T02:58:37;100495.38;;;18.90;81.74
16525;BME280;8375;33.594;-117.718;2022-10-17T03:01:07;100492.22;;;18.86;81.19
16525;BME280;8375;33.594;-117.718;2022-10-17T03:03:37;100496.38;;;18.72;81.30
16525;BME280;8375;33.594;-117.718;2022-10-17T03:06:06;100510.81;;;18.68;81.90
16525;BME280;8375;33.594;-117.718;2022-10-17T03:08:34;100509.00;;;18.69;80.77
16525;BME280;8375;33.594;-117.718;2022-10-17T03:11:03;100516.56;;;18.64;81.75
16525;BME280;8375;33.594;-117.718;2022-10-17T03:13:31;100513.09;;;18.55;81.71
16525;BME280;8375;33.594;-117.718;2022-10-17T03:16:00;100519.84;;;18.49;81.74
16525;BME280;8375;33.594;-117.718;2022-10-17T03:18:28;100524.91;;;18.42;82.27
16525;BME280;8375;33.594;-117.718;2022-10-17T03:20:59;100529.81;;;18.45;82.13
16525;BME280;8375;33.594;-117.718;2022-10-17T03:23:27;100531.31;;;18.40;82.24
16525;BME280;8375;33.594;-117.718;2022-10-17T03:25:56;100537.06;;;18.43;82.69
16525;BME280;8375;33.594;-117.718;2022-10-17T03:28:25;100540.16;;;18.30;83.34
16525;BME280;8375;33.594;-117.718;2022-10-17T03:30:53;100536.56;;;18.31;83.21
16525;BME280;8375;33.594;-117.718;2022-10-17T03:33:22;100544.75;;;18.28;83.19
16525;BME280;8375;33.594;-117.718;2022-10-17T03:35:50;100544.75;;;18.28;83.85
16525;BME280;8375;33.594;-117.718;2022-10-17T03:38:20;100544.41;;;18.23;84.25
16525;BME280;8375;33.594;-117.718;2022-10-17T03:40:54;100537.97;;;18.17;85.27
16525;BME280;8375;33.594;-117.718;2022-10-17T03:43:23;100550.13;;;18.18;85.43
16525;BME280;8375;33.594;-117.718;2022-10-17T03:45:51;100540.59;;;18.17;85.56
16525;BME280;8375;33.594;-117.718;2022-10-17T03:48:20;100553.25;;;18.14;86.76
16525;BME280;8375;33.594;-117.718;2022-10-17T03:50:49;100547.00;;;18.15;87.04
16525;BME280;8375;33.594;-117.718;2022-10-17T03:53:18;100540.44;;;18.11;87.61
16525;BME280;8375;33.594;-117.718;2022-10-17T03:55:48;100546.16;;;18.06;88.12
16525;BME280;8375;33.594;-117.718;2022-10-17T03:58:17;100542.72;;;18.06;88.44
16525;BME280;8375;33.594;-117.718;2022-10-17T04:00:45;100537.59;;;18.04;89.08
16525;BME280;8375;33.594;-117.718;2022-10-17T04:03:14;100539.03;;;17.98;88.96
16525;BME280;8375;33.594;-117.718;2022-10-17T04:05:42;100536.28;;;18.00;88.76
16525;BME280;8375;33.594;-117.718;2022-10-17T04:08:11;100541.31;;;17.93;89.31
16525;BME280;8375;33.594;-117.718;2022-10-17T04:10:40;100542.13;;;17.94;89.28
16525;BME280;8375;33.594;-117.718;2022-10-17T04:13:10;100543.31;;;17.99;88.92
16525;BME280;8375;33.594;-117.718;2022-10-17T04:15:38;100546.09;;;17.98;88.86
16525;BME280;8375;33.594;-117.718;2022-10-17T04:18:07;100541.31;;;17.93;89.16
16525;BME280;8375;33.594;-117.718;2022-10-17T04:20:36;100535.09;;;17.94;89.31
16525;BME280;8375;33.594;-117.718;2022-10-17T04:23:05;100532.78;;;17.91;89.21
16525;BME280;8375;33.594;-117.718;2022-10-17T04:25:33;100536.38;;;17.90;89.11
16525;BME280;8375;33.594;-117.718;2022-10-17T04:28:03;100542.41;;;17.82;89.58
16525;BME280;8375;33.594;-117.718;2022-10-17T04:30:33;100541.59;;;17.82;89.42
16525;BME280;8375;33.594;-117.718;2022-10-17T04:33:01;100534.03;;;17.79;89.63
16525;BME280;8375;33.594;-117.718;2022-10-17T04:35:30;100536.66;;;17.79;89.46
16525;BME280;8375;33.594;-117.718;2022-10-17T04:37:59;100536.16;;;17.75;89.83
16525;BME280;8375;33.594;-117.718;2022-10-17T04:40:28;100525.78;;;17.65;89.40
16525;BME280;8375;33.594;-117.718;2022-10-17T04:42:56;100535.59;;;17.63;89.67
16525;BME280;8375;33.594;-117.718;2022-10-17T04:45:25;100533.97;;;17.62;89.76
16525;BME280;8375;33.594;-117.718;2022-10-17T04:47:55;100530.66;;;17.60;88.96
16525;BME280;8375;33.594;-117.718;2022-10-17T04:50:24;100531.59;;;17.51;89.63
16525;BME280;8375;33.594;-117.718;2022-10-17T04:52:53;100533.56;;;17.49;89.97
16525;BME280;8375;33.594;-117.718;2022-10-17T04:55:21;100527.34;;;17.50;89.93
16525;BME280;8375;33.594;-117.718;2022-10-17T04:57:50;100529.28;;;17.48;90.03
16525;BME280;8375;33.594;-117.718;2022-10-17T05:00:18;100533.56;;;17.49;89.82
16525;BME280;8375;33.594;-117.718;2022-10-17T05:02:47;100534.69;;;17.46;89.65
16525;BME280;8375;33.594;-117.718;2022-10-17T05:05:17;100540.59;;;17.48;90.31
16525;BME280;8375;33.594;-117.718;2022-10-17T05:07:46;100534.63;;;17.38;89.80
16525;BME280;8375;33.594;-117.718;2022-10-17T05:10:15;100539.22;;;17.36;89.93
16525;BME280;8375;33.594;-117.718;2022-10-17T05:12:43;100537.88;;;17.32;90.06
16525;BME280;8375;33.594;-117.718;2022-10-17T05:15:13;100532.47;;;17.33;90.82
16525;BME280;8375;33.594;-117.718;2022-10-17T05:17:42;100525.41;;;17.34;90.61
16525;BME280;8375;33.594;-117.718;2022-10-17T05:20:11;100522.66;;;17.35;90.41
16525;BME280;8375;33.594;-117.718;2022-10-17T05:22:41;100530.06;;;17.40;90.34
16525;BME280;8375;33.594;-117.718;2022-10-17T05:25:10;100533.97;;;17.36;89.86
16525;BME280;8375;33.594;-117.718;2022-10-17T05:27:38;100525.59;;;17.32;90.10
16525;BME280;8375;33.594;-117.718;2022-10-17T05:30:08;100524.75;;;17.32;90.82
16525;BME280;8375;33.594;-117.718;2022-10-17T05:32:37;100524.56;;;17.25;90.51
16525;BME280;8375;33.594;-117.718;2022-10-17T05:35:06;100523.59;;;17.26;90.68
16525;BME280;8375;33.594;-117.718;2022-10-17T05:37:35;100517.50;;;17.25;90.56
16525;BME280;8375;33.594;-117.718;2022-10-17T05:40:06;100520.97;;;17.26;91.19
16525;BME280;8375;33.594;-117.718;2022-10-17T05:42:34;100520.13;;;17.25;90.95
16525;BME280;8375;33.594;-117.718;2022-10-17T05:45:04;100518.28;;;17.18;91.24
16525;BME280;8375;33.594;-117.718;2022-10-17T05:47:33;100530.06;;;17.13;90.80
16525;BME280;8375;33.594;-117.718;2022-10-17T05:50:01;100527.56;;;17.12;91.22
16525;BME280;8375;33.594;-117.718;2022-10-17T05:52:30;100524.81;;;17.13;91.62
16525;BME280;8375;33.594;-117.718;2022-10-17T05:54:58;100525.63;;;17.14;91.70
16525;BME280;8375;33.594;-117.718;2022-10-17T05:57:29;100530.38;;;17.10;92.05
16525;BME280;8375;33.594;-117.718;2022-10-17T05:59:57;100520.00;;;17.09;92.46
16525;BME280;8375;33.594;-117.718;2022-10-17T06:02:26;100520.00;;;17.09;92.45
16525;BME280;8375;33.594;-117.718;2022-10-17T06:04:54;100525.44;;;17.07;93.13
16525;BME280;8375;33.594;-117.718;2022-10-17T06:07:23;100530.66;;;17.07;93.64
16525;BME280;8375;33.594;-117.718;2022-10-17T06:09:51;100528.72;;;17.09;94.36
16525;BME280;8375;33.594;-117.718;2022-10-17T06:12:20;100519.50;;;17.05;93.91
16525;BME280;8375;33.594;-117.718;2022-10-17T06:14:50;100525.72;;;17.04;93.37
16525;BME280;8375;33.594;-117.718;2022-10-17T06:17:19;100512.38;;;16.97;93.78
16525;BME280;8375;33.594;-117.718;2022-10-17T06:19:47;100516.53;;;17.00;93.32
16525;BME280;8375;33.594;-117.718;2022-10-17T06:22:16;100507.16;;;16.97;92.92
16525;BME280;8375;33.594;-117.718;2022-10-17T06:24:44;100508.06;;;16.70;93.79
16525;BME280;8375;33.594;-117.718;2022-10-17T06:27:14;100504.03;;;16.57;94.84
16525;BME280;8375;33.594;-117.718;2022-10-17T06:29:42;100503.03;;;16.59;95.59
16525;BME280;8375;33.594;-117.718;2022-10-17T06:32:13;100508.00;;;16.62;95.35
16525;BME280;8375;33.594;-117.718;2022-10-17T06:34:42;100508.00;;;16.62;95.62
16525;BME280;8375;33.594;-117.718;2022-10-17T06:37:10;100508.28;;;16.59;95.56
16525;BME280;8375;33.594;-117.718;2022-10-17T06:39:39;100502.88;;;16.60;95.50
16525;BME280;8375;33.594;-117.718;2022-10-17T06:42:07;100499.75;;;16.56;95.54
16525;BME280;8375;33.594;-117.718;2022-10-17T06:44:36;100498.41;;;16.52;96.47
16525;BME280;8375;33.594;-117.718;2022-10-17T06:47:06;100500.94;;;16.62;95.88
16525;BME280;8375;33.594;-117.718;2022-10-17T06:49:36;100499.16;;;16.63;95.92
16525;BME280;8375;33.594;-117.718;2022-10-17T06:52:04;100500.94;;;16.62;95.18
16525;BME280;8375;33.594;-117.718;2022-10-17T06:54:33;100497.81;;;16.59;95.01
16525;BME280;8375;33.594;-117.718;2022-10-17T06:57:01;100494.44;;;16.48;95.68
16525;BME280;8375;33.594;-117.718;2022-10-17T06:59:30;100495.72;;;16.44;95.78
16525;BME280;8375;33.594;-117.718;2022-10-17T07:02:00;100492.13;;;16.45;95.72
16525;BME280;8375;33.594;-117.718;2022-10-17T07:04:30;100489.78;;;16.42;95.82
16525;BME280;8375;33.594;-117.718;2022-10-17T07:07:01;100489.78;;;16.42;95.96
16525;BME280;8375;33.594;-117.718;2022-10-17T07:09:30;100496.91;;;16.32;96.29
16525;BME280;8375;33.594;-117.718;2022-10-17T07:11:59;100492.94;;;16.27;96.28
16525;BME280;8375;33.594;-117.718;2022-10-17T07:14:27;100487.31;;;16.22;96.06
16525;BME280;8375;33.594;-117.718;2022-10-17T07:16:57;100485.00;;;16.19;97.01
16525;BME280;8375;33.594;-117.718;2022-10-17T07:19:28;100487.44;;;16.21;97.18
16525;BME280;8375;33.594;-117.718;2022-10-17T07:21:56;100488.41;;;16.20;97.03
16525;BME280;8375;33.594;-117.718;2022-10-17T07:24:27;100492.69;;;16.21;97.33
16525;BME280;8375;33.594;-117.718;2022-10-17T07:26:55;100496.44;;;16.18;96.75
16525;BME280;8375;33.594;-117.718;2022-10-17T07:29:24;100498.50;;;16.15;97.15
16525;BME280;8375;33.594;-117.718;2022-10-17T07:31:52;100490.28;;;16.09;97.11
16525;BME280;8375;33.594;-117.718;2022-10-17T07:34:21;100492.50;;;16.04;97.71
16525;BME280;8375;33.594;-117.718;2022-10-17T07:36:52;100494.59;;;16.01;97.58
16525;BME280;8375;33.594;-117.718;2022-10-17T07:39:21;100496.53;;;15.98;97.88
16525;BME280;8375;33.594;-117.718;2022-10-17T07:41:52;100496.97;;;15.94;97.83
16525;BME280;8375;33.594;-117.718;2022-10-17T07:44:21;100496.28;;;15.92;98.51
16525;BME280;8375;33.594;-117.718;2022-10-17T07:46:49;100505.97;;;15.91;98.10
16525;BME280;8375;33.594;-117.718;2022-10-17T07:49:18;100511.44;;;15.88;98.15
16525;BME280;8375;33.594;-117.718;2022-10-17T07:51:47;100508.56;;;15.81;98.12
16525;BME280;8375;33.594;-117.718;2022-10-17T07:54:16;100498.63;;;15.85;97.97
16525;BME280;8375;33.594;-117.718;2022-10-17T07:56:45;100514.50;;;15.74;97.75
16525;BME280;8375;33.594;-117.718;2022-10-17T07:59:18;100511.91;;;15.74;98.29
16525;BME280;8375;33.594;-117.718;2022-10-17T08:01:46;100512.28;;;15.79;98.67
16525;BME280;8375;33.594;-117.718;2022-10-17T08:04:15;100503.63;;;15.78;98.38
16525;BME280;8375;33.594;-117.718;2022-10-17T08:06:44;100506.38;;;15.77;97.74
16525;BME280;8375;33.594;-117.718;2022-10-17T08:09:12;100507.13;;;15.69;98.19
16525;BME280;8375;33.594;-117.718;2022-10-17T08:11:41;100510.81;;;15.66;98.50
16525;BME280;8375;33.594;-117.718;2022-10-17T08:14:10;100519.13;;;15.62;98.86
16525;BME280;8375;33.594;-117.718;2022-10-17T08:16:40;100513.34;;;15.58;99.04
16525;BME280;8375;33.594;-117.718;2022-10-17T08:19:09;100501.50;;;15.54;99.24
16525;BME280;8375;33.594;-117.718;2022-10-17T08:21:38;100504.13;;;15.54;98.96
16525;BME280;8375;33.594;-117.718;2022-10-17T08:24:07;100512.81;;;15.54;98.58
16525;BME280;8375;33.594;-117.718;2022-10-17T08:26:35;100508.84;;;15.50;99.23
16525;BME280;8375;33.594;-117.718;2022-10-17T08:29:04;100515.16;;;15.48;98.95
16525;BME280;8375;33.594;-117.718;2022-10-17T08:31:32;100515.16;;;15.48;99.61
16525;BME280;8375;33.594;-117.718;2022-10-17T08:34:03;100512.81;;;15.45;98.84
16525;BME280;8375;33.594;-117.718;2022-10-17T08:36:31;100508.72;;;15.42;99.24
16525;BME280;8375;33.594;-117.718;2022-10-17T08:39:00;100506.78;;;15.44;99.12
16525;BME280;8375;33.594;-117.718;2022-10-17T08:41:40;100502.41;;;15.35;99.07
16525;BME280;8375;33.594;-117.718;2022-10-17T08:44:20;100499.22;;;15.31;100.00
16525;BME280;8375;33.594;-117.718;2022-10-17T08:46:54;100499.97;;;15.23;100.00
16525;BME280;8375;33.594;-117.718;2022-10-17T08:49:35;100497.75;;;15.19;100.00
16525;BME280;8375;33.594;-117.718;2022-10-17T08:52:15;100498.03;;;15.16;100.00
16525;BME280;8375;33.594;-117.718;2022-10-17T08:54:47;100499.69;;;15.17;100.00
16525;BME280;8375;33.594;-117.718;2022-10-17T08:57:16;100495.97;;;15.19;100.00
16525;BME280;8375;33.594;-117.718;2022-10-17T08:59:49;100497.47;;;15.22;100.00
16525;BME280;8375;33.594;-117.718;2022-10-17T09:02:37;100498.03;;;15.16;100.00
16525;BME280;8375;33.594;-117.718;2022-10-17T09:05:33;100497.63;;;15.10;100.00
16525;BME280;8375;33.594;-117.718;2022-10-17T09:08:11;100496.25;;;15.06;100.00
16525;BME280;8375;33.594;-117.718;2022-10-17T09:10:51;100492.16;;;15.04;100.00
16525;BME280;8375;33.594;-117.718;2022-10-17T09:13:49;100494.75;;;15.04;100.00
16525;BME280;8375;33.594;-117.718;2022-10-17T09:16:40;100490.34;;;15.04;100.00
16525;BME280;8375;33.594;-117.718;2022-10-17T09:19:16;100484.59;;;15.01;100.00
16525;BME280;8375;33.594;-117.718;2022-10-17T09:21:51;100482.38;;;15.06;100.00
16525;BME280;8375;33.594;-117.718;2022-10-17T09:24:23;100480.44;;;15.08;100.00
16525;BME280;8375;33.594;-117.718;2022-10-17T09:26:55;100484.44;;;15.12;100.00
16525;BME280;8375;33.594;-117.718;2022-10-17T09:29:25;100486.06;;;15.13;100.00
16525;BME280;8375;33.594;-117.718;2022-10-17T09:31:59;100480.28;;;15.09;100.00
16525;BME280;8375;33.594;-117.718;2022-10-17T09:34:31;100484.84;;;15.07;100.00
16525;BME280;8375;33.594;-117.718;2022-10-17T09:37:01;100480.84;;;15.03;100.00
16525;BME280;8375;33.594;-117.718;2022-10-17T09:39:32;100479.31;;;15.10;100.00
16525;BME280;8375;33.594;-117.718;2022-10-17T09:42:01;100477.69;;;15.09;100.00
16525;BME280;8375;33.594;-117.718;2022-10-17T09:44:31;100481.41;;;15.07;100.00
16525;BME280;8375;33.594;-117.718;2022-10-17T09:47:21;100473.69;;;15.05;100.00
16525;BME280;8375;33.594;-117.718;2022-10-17T09:49:51;100467.53;;;14.96;100.00
16525;BME280;8375;33.594;-117.718;2022-10-17T09:52:25;100468.50;;;14.95;100.00
16525;BME280;8375;33.594;-117.718;2022-10-17T09:55:00;100465.88;;;14.95;100.00
16525;BME280;8375;33.594;-117.718;2022-10-17T09:57:50;100463.16;;;14.87;100.00
16525;BME280;8375;33.594;-117.718;2022-10-17T10:00:21;100459.84;;;14.85;100.00
16525;BME280;8375;33.594;-117.718;2022-10-17T10:02:50;100454.75;;;14.84;100.00
16525;BME280;8375;33.594;-117.718;2022-10-17T10:05:19;100451.16;;;14.85;100.00
16525;BME280;8375;33.594;-117.718;2022-10-17T10:08:02;100452.69;;;14.87;100.00
16525;BME280;8375;33.594;-117.718;2022-10-17T10:10:32;100438.94;;;14.85;100.00
16525;BME280;8375;33.594;-117.718;2022-10-17T10:13:05;100439.22;;;14.82;100.00
16525;BME280;8375;33.594;-117.718;2022-10-17T10:15:36;100435.38;;;14.76;100.00
16525;BME280;8375;33.594;-117.718;2022-10-17T10:18:31;100441.03;;;14.72;100.00
16525;BME280;8375;33.594;-117.718;2022-10-17T10:21:06;100442.06;;;14.69;100.00
16525;BME280;8375;33.594;-117.718;2022-10-17T10:23:37;100447.22;;;14.71;100.00
16525;BME280;8375;33.594;-117.718;2022-10-17T10:26:21;100441.53;;;14.65;100.00
16525;BME280;8375;33.594;-117.718;2022-10-17T10:28:55;100442.50;;;14.64;100.00
16525;BME280;8375;33.594;-117.718;2022-10-17T10:31:28;100444.28;;;14.64;100.00
16525;BME280;8375;33.594;-117.718;2022-10-17T10:34:02;100445.69;;;14.58;100.00
16525;BME280;8375;33.594;-117.718;2022-10-17T10:36:55;100451.03;;;14.57;100.00
16525;BME280;8375;33.594;-117.718;2022-10-17T10:39:39;100435.78;;;14.52;100.00
16525;BME280;8375;33.594;-117.718;2022-10-17T10:42:18;100436.88;;;14.49;100.00
16525;BME280;8375;33.594;-117.718;2022-10-17T10:44:48;100435.91;;;14.50;100.00
16525;BME280;8375;33.594;-117.718;2022-10-17T10:47:20;100437.44;;;14.53;100.00
16525;BME280;8375;33.594;-117.718;2022-10-17T10:49:52;100438.41;;;14.52;100.00
16525;BME280;8375;33.594;-117.718;2022-10-17T10:52:33;100439.47;;;14.49;100.00
16525;BME280;8375;33.594;-117.718;2022-10-17T10:55:16;100436.75;;;14.51;100.00
16525;BME280;8375;33.594;-117.718;2022-10-17T10:57:49;100436.19;;;14.47;100.00
16525;BME280;8375;33.594;-117.718;2022-10-17T11:00:22;100429.03;;;14.40;100.00
16525;BME280;8375;33.594;-117.718;2022-10-17T11:02:57;100432.06;;;14.35;100.00
16525;BME280;8375;33.594;-117.718;2022-10-17T11:05:36;100429.59;;;14.33;100.00
16525;BME280;8375;33.594;-117.718;2022-10-17T11:08:16;100432.63;;;14.38;100.00
16525;BME280;8375;33.594;-117.718;2022-10-17T11:10:59;100420.91;;;14.33;100.00
16525;BME280;8375;33.594;-117.718;2022-10-17T11:13:35;100421.88;;;14.32;100.00
16525;BME280;8375;33.594;-117.718;2022-10-17T11:16:20;100419.41;;;14.40;100.00
16525;BME280;8375;33.594;-117.718;2022-10-17T11:18:55;100423.25;;;14.36;100.00
16525;BME280;8375;33.594;-117.718;2022-10-17T11:21:38;100423.25;;;14.36;100.00
16525;BME280;8375;33.594;-117.718;2022-10-17T11:24:13;100421.34;;;14.38;100.00
16525;BME280;8375;33.594;-117.718;2022-10-17T11:26:51;100420.09;;;14.42;100.00
16525;BME280;8375;33.594;-117.718;2022-10-17T11:29:22;100422.72;;;14.42;100.00
16525;BME280;8375;33.594;-117.718;2022-10-17T11:31:56;100410.75;;;14.40;100.00
16525;BME280;8375;33.594;-117.718;2022-10-17T11:34:30;100422.44;;;14.35;100.00
16525;BME280;8375;33.594;-117.718;2022-10-17T11:37:01;100411.72;;;14.29;100.00
16525;BME280;8375;33.594;-117.718;2022-10-17T11:39:39;100407.19;;;14.31;100.00
16525;BME280;8375;33.594;-117.718;2022-10-17T11:42:14;100411.19;;;14.25;100.00
16525;BME280;8375;33.594;-117.718;2022-10-17T11:44:48;100409.81;;;14.21;100.00
16525;BME280;8375;33.594;-117.718;2022-10-17T11:47:28;100412.53;;;14.19;100.00
16525;BME280;8375;33.594;-117.718;2022-10-17T11:50:04;100416.38;;;14.15;100.00
16525;BME280;8375;33.594;-117.718;2022-10-17T11:52:37;100424.47;;;14.12;100.00
16525;BME280;8375;33.594;-117.718;2022-10-17T11:55:13;100425.59;;;14.19;100.00
16525;BME280;8375;33.594;-117.718;2022-10-17T11:57:53;100410.88;;;14.18;100.00
16525;BME280;8375;33.594;-117.718;2022-10-17T12:00:33;100412.53;;;14.19;100.00
16525;BME280;8375;33.594;-117.718;2022-10-17T12:03:16;100414.44;;;14.17;100.00
16525;BME280;8375;33.594;-117.718;2022-10-17T12:05:54;100405.94;;;14.15;100.00
16525;BME280;8375;33.594;-117.718;2022-10-17T12:08:28;100418.56;;;14.10;100.00
16525;BME280;8375;33.594;-117.718;2022-10-17T12:11:04;100417.34;;;14.14;100.00
16525;BME280;8375;33.594;-117.718;2022-10-17T12:13:50;100415.41;;;14.16;100.00
16525;BME280;8375;33.594;-117.718;2022-10-17T12:16:44;100415.28;;;14.08;100.00
16525;BME280;8375;33.594;-117.718;2022-10-17T12:19:33;100417.19;;;14.06;100.00
16525;BME280;8375;33.594;-117.718;2022-10-17T12:22:05;100417.47;;;14.03;100.00
16525;BME280;8375;33.594;-117.718;2022-10-17T12:24:39;100421.59;;;14.05;100.00
16525;BME280;8375;33.594;-117.718;2022-10-17T12:27:38;100424.47;;;14.02;100.00
16525;BME280;8375;33.594;-117.718;2022-10-17T12:30:23;100430.94;;;13.98;100.00
16525;BME280;8375;33.594;-117.718;2022-10-17T12:33:04;100428.72;;;13.93;100.00
16525;BME280;8375;33.594;-117.718;2022-10-17T12:35:35;100425.56;;;13.90;100.00
16525;BME280;8375;33.594;-117.718;2022-10-17T12:38:27;100420.19;;;13.91;100.00
16525;BME280;8375;33.594;-117.718;2022-10-17T12:41:05;100425.13;;;13.85;100.00
16525;BME280;8375;33.594;-117.718;2022-10-17T12:43:49;100427.88;;;13.83;100.00
16525;BME280;8375;33.594;-117.718;2022-10-17T12:46:50;100428.13;;;13.80;100.00
16525;BME280;8375;33.594;-117.718;2022-10-17T12:49:34;100428.13;;;13.80;100.00
16525;BME280;8375;33.594;-117.718;2022-10-17T12:52:19;100434.88;;;13.83;100.00
16525;BME280;8375;33.594;-117.718;2022-10-17T12:54:56;100427.88;;;13.83;100.00
16525;BME280;8375;33.594;-117.718;2022-10-17T12:57:31;100426.47;;;13.79;100.00